Time,TemperatureF,DewpointF,PressureIn,WindDirection,WindDirectionDegrees,WindSpeedMPH,WindSpeedGustMPH,Humidity,HourlyPrecipIn,Conditions,Clouds,dailyrainin,SoftwareType,DateUTC
2013-01-01 00:05:00,56.2,52.7,30.21,SW,231,0.0,0.0,88,0.00,,,0.00,Wunderground v.1.15,2013-01-01 05:05:00,
2013-01-01 00:10:00,56.1,52.6,30.21,SW,232,0.0,0.0,88,0.00,,,0.00,Wunderground v.1.15,2013-01-01 05:10:00,
2013-01-01 00:15:00,56.0,52.5,30.20,SW,232,0.0,0.0,88,0.00,,,0.00,Wunderground v.1.15,2013-01-01 05:15:00,
2013-01-01 00:20:00,55.8,52.3,30.20,SW,231,0.0,0.0,88,0.00,,,0.00,Wunderground v.1.15,2013-01-01 05:20:00,
2013-01-01 00:25:00,55.7,52.2,30.20,SW,232,0.0,0.0,88,0.00,,,0.00,Wunderground v.1.15,2013-01-01 05:25:00,
2013-01-01 00:30:00,55.5,52.0,30.19,SW,232,0.0,0.0,88,0.00,,,0.00,Wunderground v.1.15,2013-01-01 05:30:00,
2013-01-01 00:35:00,55.5,52.0,30.19,SW,232,0.0,0.0,88,0.00,,,0.00,Wunderground v.1.15,2013-01-01 05:35:00,
2013-01-01 00:40:00,55.4,52.2,30.19,SW,232,0.0,0.0,89,0.00,,,0.00,Wunderground v.1.15,2013-01-01 05:40:00,
2013-01-01 00:45:00,55.4,52.2,30.19,SW,232,0.0,0.0,89,0.00,,,0.00,Wunderground v.1.15,2013-01-01 05:45:00,
2013-01-01 00:50:00,55.4,52.2,30.19,SW,232,0.0,0.0,89,0.00,,,0.00,Wunderground v.1.15,2013-01-01 05:50:00,
2013-01-01 00:55:00,55.4,52.2,30.19,SW,232,0.0,0.0,89,0.00,,,0.00,Wunderground v.1.15,2013-01-01 05:55:00,
2013-01-01 01:00:00,55.7,52.5,30.19,SW,232,0.0,0.0,89,0.00,,,0.00,Wunderground v.1.15,2013-01-01 06:00:00,
2013-01-01 01:05:00,55.8,52.6,30.19,SW,232,0.0,0.0,89,0.00,,,0.00,Wunderground v.1.15,2013-01-01 06:05:00,
2013-01-01 01:10:00,55.9,52.7,30.19,SW,232,0.0,0.0,89,0.00,,,0.00,Wunderground v.1.15,2013-01-01 06:10:00,
2013-01-01 01:20:00,56.3,53.1,30.19,SW,232,0.0,0.0,89,0.00,,,0.00,Wunderground v.1.15,2013-01-01 06:20:00,
2013-01-01 01:25:00,56.1,52.9,30.19,SW,232,0.0,0.0,89,0.00,,,0.01,Wunderground v.1.15,2013-01-01 06:25:00,
2013-01-01 01:30:00,56.0,52.8,30.20,SW,232,0.0,0.0,89,0.00,,,0.01,Wunderground v.1.15,2013-01-01 06:30:00,
2013-01-01 01:35:00,55.8,52.6,30.19,SW,232,0.0,0.0,89,0.00,,,0.01,Wunderground v.1.15,2013-01-01 06:35:00,
2013-01-01 01:40:00,55.8,52.6,30.19,SW,232,0.0,0.0,89,0.00,,,0.01,Wunderground v.1.15,2013-01-01 06:40:00,
2013-01-01 01:45:00,55.8,52.6,30.19,SW,232,0.0,0.0,89,0.00,,,0.01,Wunderground v.1.15,2013-01-01 06:45:00,
2013-01-01 01:50:00,55.9,52.7,30.19,SW,232,0.0,0.0,89,0.00,,,0.01,Wunderground v.1.15,2013-01-01 06:50:00,
2013-01-01 01:55:00,56.0,52.8,30.19,SW,232,0.0,0.0,89,0.00,,,0.01,Wunderground v.1.15,2013-01-01 06:55:00,
2013-01-01 02:00:00,56.1,52.9,30.18,SW,232,0.0,0.0,89,0.00,,,0.01,Wunderground v.1.15,2013-01-01 07:00:00,
2013-01-01 02:10:00,56.4,53.5,30.18,SW,232,0.0,0.0,90,0.00,,,0.01,Wunderground v.1.15,2013-01-01 07:10:00,
2013-01-01 02:15:00,56.6,53.4,30.18,SW,232,0.0,0.0,89,0.00,,,0.01,Wunderground v.1.15,2013-01-01 07:15:00,
2013-01-01 02:20:00,56.7,53.8,30.18,SW,232,0.0,0.0,90,0.00,,,0.01,Wunderground v.1.15,2013-01-01 07:20:00,
2013-01-01 02:30:00,57.0,54.1,30.17,SW,231,0.0,0.0,90,0.00,,,0.01,Wunderground v.1.15,2013-01-01 07:30:00,
2013-01-01 02:35:00,57.3,54.4,30.17,SW,232,0.0,0.0,90,0.00,,,0.01,Wunderground v.1.15,2013-01-01 07:35:00,
2013-01-01 02:45:00,57.7,54.8,30.17,SW,232,0.0,0.0,90,0.00,,,0.01,Wunderground v.1.15,2013-01-01 07:45:00,
2013-01-01 02:50:00,57.9,55.0,30.17,SW,232,0.0,0.0,90,0.00,,,0.01,Wunderground v.1.15,2013-01-01 07:50:00,
2013-01-01 02:55:00,58.0,55.1,30.17,SW,232,0.0,0.0,90,0.00,,,0.01,Wunderground v.1.15,2013-01-01 07:55:00,
2013-01-01 03:00:00,58.1,55.2,30.17,SW,232,0.0,0.0,90,0.00,,,0.01,Wunderground v.1.15,2013-01-01 08:00:00,
2013-01-01 03:05:00,58.1,55.2,30.17,SW,232,0.0,0.0,90,0.00,,,0.01,Wunderground v.1.15,2013-01-01 08:05:00,
2013-01-01 03:10:00,58.1,55.2,30.16,SW,232,0.0,0.0,90,0.00,,,0.01,Wunderground v.1.15,2013-01-01 08:10:00,
2013-01-01 03:15:00,58.0,54.8,30.16,SW,232,0.0,0.0,89,0.00,,,0.01,Wunderground v.1.15,2013-01-01 08:15:00,
2013-01-01 03:20:00,58.0,54.8,30.16,SW,232,0.0,0.0,89,0.00,,,0.01,Wunderground v.1.15,2013-01-01 08:20:00,
2013-01-01 03:30:00,58.0,54.8,30.16,SW,232,0.0,0.0,89,0.00,,,0.01,Wunderground v.1.15,2013-01-01 08:30:00,
2013-01-01 03:40:00,57.9,55.0,30.15,SW,232,0.0,0.0,90,0.00,,,0.01,Wunderground v.1.15,2013-01-01 08:40:00,
2013-01-01 03:50:00,58.0,55.1,30.15,ESE,109,0.0,0.0,90,0.00,,,0.01,Wunderground v.1.15,2013-01-01 08:50:00,
2013-01-01 04:00:00,58.0,55.1,30.15,ESE,109,0.0,0.0,90,0.00,,,0.01,Wunderground v.1.15,2013-01-01 09:00:00,
2013-01-01 04:05:00,58.0,55.1,30.15,ESE,109,0.0,0.0,90,0.00,,,0.01,Wunderground v.1.15,2013-01-01 09:05:00,
2013-01-01 04:15:00,58.0,55.1,30.15,East,97,0.0,0.0,90,0.00,,,0.01,Wunderground v.1.15,2013-01-01 09:15:00,
2013-01-01 04:25:00,58.1,55.2,30.14,East,97,0.0,0.0,90,0.00,,,0.01,Wunderground v.1.15,2013-01-01 09:25:00,
2013-01-01 04:35:00,58.0,55.1,30.13,East,97,0.0,0.0,90,0.00,,,0.01,Wunderground v.1.15,2013-01-01 09:35:00,
2013-01-01 04:45:00,57.9,55.0,30.13,East,97,0.0,0.0,90,0.00,,,0.01,Wunderground v.1.15,2013-01-01 09:45:00,
2013-01-01 04:50:00,57.9,55.0,30.13,East,97,0.0,0.0,90,0.00,,,0.01,Wunderground v.1.15,2013-01-01 09:50:00,
2013-01-01 05:00:00,57.8,54.9,30.13,East,97,0.0,0.0,90,0.00,,,0.01,Wunderground v.1.15,2013-01-01 10:00:00,
2013-01-01 05:05:00,57.8,54.9,30.13,East,97,0.0,0.0,90,0.00,,,0.01,Wunderground v.1.15,2013-01-01 10:05:00,
2013-01-01 05:15:00,57.7,54.8,30.13,East,97,0.0,0.0,90,0.00,,,0.01,Wunderground v.1.15,2013-01-01 10:15:00,
2013-01-01 05:20:00,57.6,54.7,30.13,East,97,0.0,0.0,90,0.00,,,0.01,Wunderground v.1.15,2013-01-01 10:20:00,
2013-01-01 05:30:00,57.5,54.3,30.13,East,97,0.0,0.0,89,0.00,,,0.01,Wunderground v.1.15,2013-01-01 10:30:00,
2013-01-01 05:35:00,57.5,54.6,30.13,East,97,0.0,0.0,90,0.00,,,0.01,Wunderground v.1.15,2013-01-01 10:35:00,
2013-01-01 05:45:00,57.3,54.4,30.13,East,97,0.0,0.0,90,0.00,,,0.01,Wunderground v.1.15,2013-01-01 10:45:00,
2013-01-01 05:55:00,57.1,54.2,30.13,East,97,0.0,0.0,90,0.00,,,0.01,Wunderground v.1.15,2013-01-01 10:55:00,
2013-01-01 06:00:00,56.9,54.0,30.13,East,97,0.0,0.0,90,0.00,,,0.01,Wunderground v.1.15,2013-01-01 11:00:00,
2013-01-01 06:10:00,56.9,54.0,30.13,East,97,0.0,0.0,90,0.00,,,0.01,Wunderground v.1.15,2013-01-01 11:10:00,
2013-01-01 06:20:00,56.7,53.8,30.13,East,97,0.0,0.0,90,0.00,,,0.01,Wunderground v.1.15,2013-01-01 11:20:00,
2013-01-01 06:25:00,56.7,53.8,30.13,East,97,0.0,0.0,90,0.00,,,0.01,Wunderground v.1.15,2013-01-01 11:25:00,
2013-01-01 06:35:00,56.7,53.8,30.13,East,97,0.0,0.0,90,0.00,,,0.01,Wunderground v.1.15,2013-01-01 11:35:00,
2013-01-01 06:40:00,56.6,53.7,30.13,East,97,0.0,0.0,90,0.00,,,0.01,Wunderground v.1.15,2013-01-01 11:40:00,
2013-01-01 06:50:00,56.6,53.7,30.12,East,97,0.0,0.0,90,0.00,,,0.01,Wunderground v.1.15,2013-01-01 11:50:00,
2013-01-01 07:00:00,56.7,53.8,30.13,East,97,0.0,0.0,90,0.00,,,0.01,Wunderground v.1.15,2013-01-01 12:00:00,
2013-01-01 07:05:00,56.8,53.9,30.13,East,97,0.0,0.0,90,0.00,,,0.01,Wunderground v.1.15,2013-01-01 12:05:00,
2013-01-01 07:10:00,56.8,53.9,30.13,East,97,0.0,0.0,90,0.00,,,0.01,Wunderground v.1.15,2013-01-01 12:10:00,
2013-01-01 07:20:00,56.9,54.0,30.14,East,97,0.0,0.0,90,0.00,,,0.01,Wunderground v.1.15,2013-01-01 12:20:00,
2013-01-01 07:25:00,56.9,54.0,30.14,East,97,0.0,0.0,90,0.00,,,0.01,Wunderground v.1.15,2013-01-01 12:25:00,
2013-01-01 07:30:00,56.9,54.0,30.14,East,97,0.0,0.0,90,0.00,,,0.01,Wunderground v.1.15,2013-01-01 12:30:00,
2013-01-01 07:35:00,56.9,54.0,30.14,East,97,0.0,0.0,90,0.00,,,0.01,Wunderground v.1.15,2013-01-01 12:35:00,
2013-01-01 07:40:00,57.0,54.1,30.14,East,97,0.0,0.0,90,0.00,,,0.01,Wunderground v.1.15,2013-01-01 12:40:00,
2013-01-01 07:45:00,57.0,54.1,30.14,East,97,0.0,0.0,90,0.00,,,0.01,Wunderground v.1.15,2013-01-01 12:45:00,
2013-01-01 07:50:00,57.0,54.1,30.15,East,97,0.0,0.0,90,0.00,,,0.01,Wunderground v.1.15,2013-01-01 12:50:00,
2013-01-01 07:55:00,56.9,54.0,30.15,East,97,0.0,0.0,90,0.00,,,0.01,Wunderground v.1.15,2013-01-01 12:55:00,
2013-01-01 08:05:00,57.3,54.4,30.15,East,97,0.0,0.0,90,0.00,,,0.01,Wunderground v.1.15,2013-01-01 13:05:00,
2013-01-01 08:10:00,57.5,54.6,30.16,East,97,0.0,0.0,90,0.00,,,0.01,Wunderground v.1.15,2013-01-01 13:10:00,
2013-01-01 08:15:00,57.7,54.8,30.15,East,97,0.0,0.0,90,0.00,,,0.01,Wunderground v.1.15,2013-01-01 13:15:00,
2013-01-01 08:20:00,58.0,55.1,30.15,East,97,0.0,0.0,90,0.00,,,0.01,Wunderground v.1.15,2013-01-01 13:20:00,
2013-01-01 08:30:00,58.9,56.0,30.15,East,97,0.0,0.0,90,0.00,,,0.01,Wunderground v.1.15,2013-01-01 13:30:00,
2013-01-01 08:35:00,59.6,56.4,30.14,East,97,0.0,0.0,89,0.00,,,0.01,Wunderground v.1.15,2013-01-01 13:35:00,
2013-01-01 08:45:00,61.0,57.4,30.14,East,97,0.0,0.0,88,0.00,,,0.01,Wunderground v.1.15,2013-01-01 13:45:00,
2013-01-01 08:50:00,61.7,57.8,30.15,East,97,0.0,2.0,87,0.00,,,0.01,Wunderground v.1.15,2013-01-01 13:50:00,
2013-01-01 08:55:00,62.4,58.2,30.15,East,97,0.0,2.0,86,0.00,,,0.01,Wunderground v.1.15,2013-01-01 13:55:00,
2013-01-01 09:05:00,63.9,59.0,30.15,SE,125,1.0,1.0,84,0.00,,,0.01,Wunderground v.1.15,2013-01-01 14:05:00,
2013-01-01 09:10:00,64.6,59.3,30.15,SE,126,1.0,4.0,83,0.00,,,0.01,Wunderground v.1.15,2013-01-01 14:10:00,
2013-01-01 09:15:00,65.2,59.2,30.15,ESE,123,1.0,4.0,81,0.00,,,0.01,Wunderground v.1.15,2013-01-01 14:15:00,
2013-01-01 09:20:00,65.7,59.7,30.15,SSE,147,1.0,3.0,81,0.00,,,0.01,Wunderground v.1.15,2013-01-01 14:20:00,
2013-01-01 09:25:00,66.1,59.7,30.15,ESE,120,1.0,3.0,80,0.00,,,0.01,Wunderground v.1.15,2013-01-01 14:25:00,
2013-01-01 09:30:00,66.6,59.5,30.15,SE,138,1.0,1.0,78,0.00,,,0.01,Wunderground v.1.15,2013-01-01 14:30:00,
2013-01-01 09:40:00,67.5,60.0,30.15,ESE,102,1.0,1.0,77,0.00,,,0.01,Wunderground v.1.15,2013-01-01 14:40:00,
2013-01-01 09:45:00,67.9,60.1,30.15,ESE,107,1.0,1.0,76,0.00,,,0.01,Wunderground v.1.15,2013-01-01 14:45:00,
2013-01-01 09:50:00,68.5,60.3,30.15,East,80,1.0,1.0,75,0.00,,,0.01,Wunderground v.1.15,2013-01-01 14:50:00,
2013-01-01 09:55:00,69.0,60.4,30.15,East,97,1.0,2.0,74,0.00,,,0.01,Wunderground v.1.15,2013-01-01 14:55:00,
2013-01-01 10:00:00,69.3,60.7,30.15,ESE,116,1.0,2.0,74,0.00,,,0.01,Wunderground v.1.15,2013-01-01 15:00:00,
2013-01-01 10:10:00,69.9,60.8,30.16,East,79,2.0,2.0,73,0.00,,,0.01,Wunderground v.1.15,2013-01-01 15:10:00,
2013-01-01 10:20:00,70.9,61.0,30.16,East,97,2.0,3.0,71,0.00,,,0.01,Wunderground v.1.15,2013-01-01 15:20:00,
2013-01-01 10:25:00,71.5,61.2,30.16,ESE,114,2.0,6.0,70,0.00,,,0.01,Wunderground v.1.15,2013-01-01 15:25:00,
2013-01-01 10:30:00,71.6,60.9,30.15,SE,140,3.0,5.0,69,0.00,,,0.01,Wunderground v.1.15,2013-01-01 15:30:00,
2013-01-01 10:35:00,71.7,60.6,30.15,ESE,120,4.0,5.0,68,0.00,,,0.01,Wunderground v.1.15,2013-01-01 15:35:00,
2013-01-01 10:40:00,71.7,60.6,30.15,SE,140,4.0,5.0,68,0.00,,,0.01,Wunderground v.1.15,2013-01-01 15:40:00,
2013-01-01 10:45:00,72.0,61.3,30.15,SE,144,3.0,5.0,69,0.00,,,0.01,Wunderground v.1.15,2013-01-01 15:45:00,
2013-01-01 10:55:00,72.5,61.3,30.15,SE,142,4.0,5.0,68,0.00,,,0.01,Wunderground v.1.15,2013-01-01 15:55:00,
2013-01-01 11:00:00,72.7,61.1,30.14,South,171,4.0,4.0,67,0.00,,,0.01,Wunderground v.1.15,2013-01-01 16:00:00,
2013-01-01 11:10:00,73.6,61.1,30.14,South,171,5.0,6.0,65,0.00,,,0.01,Wunderground v.1.15,2013-01-01 16:10:00,
2013-01-01 11:15:00,73.8,61.3,30.14,SSE,155,6.0,6.0,65,0.00,,,0.01,Wunderground v.1.15,2013-01-01 16:15:00,
2013-01-01 11:20:00,74.0,61.0,30.13,SSE,165,6.0,8.0,64,0.00,,,0.01,Wunderground v.1.15,2013-01-01 16:20:00,
2013-01-01 11:30:00,73.7,60.8,30.14,South,172,7.0,8.0,64,0.00,,,0.01,Wunderground v.1.15,2013-01-01 16:30:00,
2013-01-01 11:40:00,74.4,61.0,30.14,SSE,153,6.0,8.0,63,0.00,,,0.01,Wunderground v.1.15,2013-01-01 16:40:00,
2013-01-01 11:50:00,74.4,60.5,30.12,SSE,147,7.0,8.0,62,0.00,,,0.01,Wunderground v.1.15,2013-01-01 16:50:00,
2013-01-01 11:55:00,74.4,61.0,30.13,SSW,194,6.0,8.0,63,0.00,,,0.01,Wunderground v.1.15,2013-01-01 16:55:00,
2013-01-01 12:05:00,74.2,60.3,30.12,South,171,7.0,13.0,62,0.00,,,0.01,Wunderground v.1.15,2013-01-01 17:05:00,
2013-01-01 12:10:00,74.0,60.2,30.12,South,170,8.0,8.0,62,0.00,,,0.01,Wunderground v.1.15,2013-01-01 17:10:00,
2013-01-01 12:20:00,73.9,60.5,30.11,South,172,8.0,8.0,63,0.00,,,0.01,Wunderground v.1.15,2013-01-01 17:20:00,
2013-01-01 12:30:00,74.9,61.0,30.10,SSE,166,7.0,7.0,62,0.00,,,0.01,Wunderground v.1.15,2013-01-01 17:30:00,
2013-01-01 12:40:00,74.9,61.0,30.10,SSE,163,8.0,8.0,62,0.00,,,0.01,Wunderground v.1.15,2013-01-01 17:40:00,
2013-01-01 12:50:00,74.6,60.3,30.09,SE,144,9.0,9.0,61,0.00,,,0.01,Wunderground v.1.15,2013-01-01 17:50:00,
2013-01-01 13:00:00,74.9,61.0,30.09,South,176,8.0,8.0,62,0.00,,,0.01,Wunderground v.1.15,2013-01-01 18:00:00,
2013-01-01 13:10:00,74.9,61.0,30.08,South,173,7.0,11.0,62,0.00,,,0.01,Wunderground v.1.15,2013-01-01 18:10:00,
2013-01-01 13:15:00,74.9,61.5,30.08,South,177,8.0,11.0,63,0.00,,,0.01,Wunderground v.1.15,2013-01-01 18:15:00,
2013-01-01 13:25:00,75.3,60.9,30.08,South,173,6.0,10.0,61,0.00,,,0.01,Wunderground v.1.15,2013-01-01 18:25:00,
2013-01-01 13:30:00,75.4,61.0,30.08,South,182,6.0,6.0,61,0.00,,,0.01,Wunderground v.1.15,2013-01-01 18:30:00,
2013-01-01 13:40:00,74.6,60.3,30.07,SE,139,6.0,6.0,61,0.00,,,0.01,Wunderground v.1.15,2013-01-01 18:40:00,
2013-01-01 13:50:00,74.8,60.9,30.07,South,178,5.0,10.0,62,0.00,,,0.01,Wunderground v.1.15,2013-01-01 18:50:00,
2013-01-01 13:55:00,74.8,60.9,30.07,SSE,161,6.0,10.0,62,0.00,,,0.01,Wunderground v.1.15,2013-01-01 18:55:00,
2013-01-01 14:00:00,75.1,61.2,30.07,South,182,6.0,10.0,62,0.00,,,0.01,Wunderground v.1.15,2013-01-01 19:00:00,
2013-01-01 14:05:00,75.4,61.0,30.06,SE,140,5.0,10.0,61,0.00,,,0.01,Wunderground v.1.15,2013-01-01 19:05:00,
2013-01-01 14:15:00,75.1,60.7,30.06,South,183,6.0,6.0,61,0.00,,,0.01,Wunderground v.1.15,2013-01-01 19:15:00,
2013-01-01 14:25:00,75.0,61.1,30.05,SSE,165,6.0,7.0,62,0.00,,,0.01,Wunderground v.1.15,2013-01-01 19:25:00,
2013-01-01 14:30:00,75.1,61.2,30.05,SE,131,6.0,9.0,62,0.00,,,0.01,Wunderground v.1.15,2013-01-01 19:30:00,
2013-01-01 14:35:00,74.9,61.0,30.05,South,182,6.0,11.0,62,0.00,,,0.01,Wunderground v.1.15,2013-01-01 19:35:00,
2013-01-01 14:45:00,74.9,61.0,30.05,SSE,151,6.0,6.0,62,0.00,,,0.01,Wunderground v.1.15,2013-01-01 19:45:00,
2013-01-01 14:50:00,74.8,60.9,30.05,South,182,7.0,7.0,62,0.00,,,0.01,Wunderground v.1.15,2013-01-01 19:50:00,
2013-01-01 15:00:00,74.9,61.0,30.05,SSE,154,7.0,7.0,62,0.00,,,0.01,Wunderground v.1.15,2013-01-01 20:00:00,
2013-01-01 15:05:00,75.1,60.7,30.05,SSE,155,6.0,9.0,61,0.00,,,0.01,Wunderground v.1.15,2013-01-01 20:05:00,
2013-01-01 15:10:00,74.9,61.0,30.05,SSE,160,7.0,10.0,62,0.00,,,0.01,Wunderground v.1.15,2013-01-01 20:10:00,
2013-01-01 15:15:00,74.9,60.5,30.04,ESE,111,7.0,12.0,61,0.00,,,0.01,Wunderground v.1.15,2013-01-01 20:15:00,
2013-01-01 15:25:00,74.7,60.8,30.04,SSE,157,8.0,8.0,62,0.00,,,0.01,Wunderground v.1.15,2013-01-01 20:25:00,
2013-01-01 15:30:00,74.8,60.9,30.04,ESE,115,7.0,7.0,62,0.00,,,0.01,Wunderground v.1.15,2013-01-01 20:30:00,
2013-01-01 15:35:00,74.9,61.0,30.04,SE,142,6.0,9.0,62,0.00,,,0.01,Wunderground v.1.15,2013-01-01 20:35:00,
2013-01-01 15:40:00,74.8,60.9,30.04,SE,140,7.0,7.0,62,0.00,,,0.01,Wunderground v.1.15,2013-01-01 20:40:00,
2013-01-01 15:45:00,74.6,61.2,30.04,SSE,159,7.0,9.0,63,0.00,,,0.01,Wunderground v.1.15,2013-01-01 20:45:00,
2013-01-01 15:50:00,74.5,61.1,30.04,SE,144,8.0,9.0,63,0.00,,,0.01,Wunderground v.1.15,2013-01-01 20:50:00,
2013-01-01 16:00:00,74.8,61.4,30.05,SE,132,5.0,5.0,63,0.00,,,0.01,Wunderground v.1.15,2013-01-01 21:00:00,
2013-01-01 16:05:00,74.5,61.5,30.04,South,169,6.0,6.0,64,0.00,,,0.01,Wunderground v.1.15,2013-01-01 21:05:00,
2013-01-01 16:10:00,74.6,61.6,30.04,SSE,154,5.0,5.0,64,0.00,,,0.01,Wunderground v.1.15,2013-01-01 21:10:00,
2013-01-01 16:15:00,74.9,61.5,30.04,SSE,164,4.0,5.0,63,0.00,,,0.01,Wunderground v.1.15,2013-01-01 21:15:00,
2013-01-01 16:20:00,74.8,61.4,30.04,SSE,153,4.0,6.0,63,0.00,,,0.01,Wunderground v.1.15,2013-01-01 21:20:00,
2013-01-01 16:30:00,74.5,61.5,30.05,SE,124,5.0,5.0,64,0.00,,,0.01,Wunderground v.1.15,2013-01-01 21:30:00,
2013-01-01 16:35:00,74.6,61.6,30.05,SE,146,5.0,9.0,64,0.00,,,0.01,Wunderground v.1.15,2013-01-01 21:35:00,
2013-01-01 16:40:00,74.6,61.6,30.05,SSE,156,4.0,4.0,64,0.00,,,0.01,Wunderground v.1.15,2013-01-01 21:40:00,
2013-01-01 16:45:00,74.5,61.5,30.05,SE,138,4.0,5.0,64,0.00,,,0.01,Wunderground v.1.15,2013-01-01 21:45:00,
2013-01-01 16:55:00,74.2,61.7,30.05,ESE,111,3.0,4.0,65,0.00,,,0.01,Wunderground v.1.15,2013-01-01 21:55:00,
2013-01-01 17:00:00,74.0,61.5,30.05,SSE,157,4.0,4.0,65,0.00,,,0.01,Wunderground v.1.15,2013-01-01 22:00:00,
2013-01-01 17:10:00,73.7,61.6,30.05,SE,131,3.0,6.0,66,0.00,,,0.01,Wunderground v.1.15,2013-01-01 22:10:00,
2013-01-01 17:15:00,73.5,61.4,30.05,SE,143,3.0,6.0,66,0.00,,,0.01,Wunderground v.1.15,2013-01-01 22:15:00,
2013-01-01 17:20:00,73.3,61.3,30.05,SSE,167,4.0,4.0,66,0.00,,,0.01,Wunderground v.1.15,2013-01-01 22:20:00,
2013-01-01 17:25:00,73.1,61.5,30.05,South,177,4.0,4.0,67,0.00,,,0.01,Wunderground v.1.15,2013-01-01 22:25:00,
2013-01-01 17:30:00,72.9,61.7,30.05,South,171,3.0,3.0,68,0.00,,,0.01,Wunderground v.1.15,2013-01-01 22:30:00,
2013-01-01 17:35:00,72.7,61.5,30.05,South,184,2.0,3.0,68,0.00,,,0.01,Wunderground v.1.15,2013-01-01 22:35:00,
2013-01-01 17:45:00,72.1,61.4,30.05,SSE,154,2.0,3.0,69,0.00,,,0.01,Wunderground v.1.15,2013-01-01 22:45:00,
2013-01-01 17:50:00,71.9,61.6,30.05,SSE,160,2.0,2.0,70,0.00,,,0.01,Wunderground v.1.15,2013-01-01 22:50:00,
2013-01-01 17:55:00,71.6,61.3,30.05,SSE,160,1.0,2.0,70,0.00,,,0.01,Wunderground v.1.15,2013-01-01 22:55:00,
2013-01-01 18:00:00,71.4,61.5,30.05,SSE,160,1.0,1.0,71,0.00,,,0.01,Wunderground v.1.15,2013-01-01 23:00:00,
2013-01-01 18:05:00,71.1,61.2,30.05,SSE,160,0.0,1.0,71,0.00,,,0.01,Wunderground v.1.15,2013-01-01 23:05:00,
2013-01-01 18:10:00,70.9,61.0,30.05,SSE,160,0.0,0.0,71,0.00,,,0.01,Wunderground v.1.15,2013-01-01 23:10:00,
2013-01-01 18:15:00,70.8,61.3,30.05,SSE,160,0.0,0.0,72,0.00,,,0.01,Wunderground v.1.15,2013-01-01 23:15:00,
2013-01-01 18:20:00,70.6,61.1,30.05,SSE,160,0.0,0.0,72,0.00,,,0.01,Wunderground v.1.15,2013-01-01 23:20:00,
2013-01-01 18:25:00,70.4,61.3,30.05,SSE,160,0.0,0.0,73,0.00,,,0.01,Wunderground v.1.15,2013-01-01 23:25:00,
2013-01-01 18:30:00,70.2,61.1,30.05,SSE,160,0.0,0.0,73,0.00,,,0.01,Wunderground v.1.15,2013-01-01 23:30:00,
2013-01-01 18:35:00,70.1,61.0,30.05,SSE,160,0.0,0.0,73,0.00,,,0.01,Wunderground v.1.15,2013-01-01 23:35:00,
2013-01-01 18:40:00,69.9,60.8,30.05,SSE,160,0.0,0.0,73,0.00,,,0.01,Wunderground v.1.15,2013-01-01 23:40:00,
2013-01-01 18:50:00,69.6,60.9,30.05,SSE,160,0.0,0.0,74,0.00,,,0.01,Wunderground v.1.15,2013-01-01 23:50:00,
2013-01-01 19:00:00,69.2,60.6,30.06,SSE,160,0.0,0.0,74,0.00,,,0.01,Wunderground v.1.15,2013-01-02 00:00:00,
2013-01-01 19:10:00,68.6,60.4,30.05,SSE,160,0.0,0.0,75,0.00,,,0.01,Wunderground v.1.15,2013-01-02 00:10:00,
2013-01-01 19:15:00,68.2,60.3,30.05,SSE,160,0.0,0.0,76,0.00,,,0.01,Wunderground v.1.15,2013-01-02 00:15:00,
2013-01-01 19:20:00,67.9,60.1,30.06,SSE,160,0.0,0.0,76,0.00,,,0.01,Wunderground v.1.15,2013-01-02 00:20:00,
2013-01-01 19:25:00,67.7,59.9,30.06,SSE,160,0.0,0.0,76,0.00,,,0.01,Wunderground v.1.15,2013-01-02 00:25:00,
2013-01-01 19:30:00,67.4,60.3,30.06,SSE,160,0.0,0.0,78,0.00,,,0.01,Wunderground v.1.15,2013-01-02 00:30:00,
2013-01-01 19:35:00,67.1,60.0,30.06,SSE,160,0.0,0.0,78,0.00,,,0.01,Wunderground v.1.15,2013-01-02 00:35:00,
2013-01-01 19:40:00,66.8,60.1,30.06,SSE,160,0.0,0.0,79,0.00,,,0.01,Wunderground v.1.15,2013-01-02 00:40:00,
2013-01-01 19:50:00,66.7,60.3,30.06,SSE,160,0.0,0.0,80,0.00,,,0.01,Wunderground v.1.15,2013-01-02 00:50:00,
2013-01-01 19:55:00,66.7,60.3,30.07,SSE,160,0.0,0.0,80,0.00,,,0.01,Wunderground v.1.15,2013-01-02 00:55:00,
2013-01-01 20:05:00,67.0,60.6,30.07,SSE,160,0.0,0.0,80,0.00,,,0.01,Wunderground v.1.15,2013-01-02 01:05:00,
2013-01-01 20:10:00,67.3,60.9,30.07,SSE,160,0.0,0.0,80,0.00,,,0.01,Wunderground v.1.15,2013-01-02 01:10:00,
2013-01-01 20:20:00,67.6,60.9,30.06,SSE,160,0.0,0.0,79,0.00,,,0.01,Wunderground v.1.15,2013-01-02 01:20:00,
2013-01-01 20:30:00,67.7,61.0,30.06,SSE,160,0.0,0.0,79,0.00,,,0.01,Wunderground v.1.15,2013-01-02 01:30:00,
2013-01-01 20:40:00,67.9,60.8,30.06,SSE,160,0.0,0.0,78,0.00,,,0.01,Wunderground v.1.15,2013-01-02 01:40:00,
2013-01-01 20:50:00,67.8,61.0,30.06,SSE,160,1.0,1.0,79,0.00,,,0.01,Wunderground v.1.15,2013-01-02 01:50:00,
2013-01-01 21:00:00,67.7,61.0,30.06,SSE,160,0.0,0.0,79,0.00,,,0.01,Wunderground v.1.15,2013-01-02 02:00:00,
2013-01-01 21:05:00,67.7,61.0,30.06,SSE,160,0.0,0.0,79,0.00,,,0.01,Wunderground v.1.15,2013-01-02 02:05:00,
2013-01-01 21:15:00,67.7,61.3,30.06,SSE,160,0.0,0.0,80,0.00,,,0.01,Wunderground v.1.15,2013-01-02 02:15:00,
2013-01-01 21:25:00,67.8,61.4,30.06,SSE,160,0.0,1.0,80,0.00,,,0.01,Wunderground v.1.15,2013-01-02 02:25:00,
2013-01-01 21:30:00,67.8,61.4,30.06,SSE,160,0.0,0.0,80,0.00,,,0.01,Wunderground v.1.15,2013-01-02 02:30:00,
2013-01-01 21:40:00,67.8,61.4,30.06,SSE,160,0.0,0.0,80,0.00,,,0.01,Wunderground v.1.15,2013-01-02 02:40:00,
2013-01-01 21:45:00,67.8,61.4,30.06,SSE,160,0.0,0.0,80,0.00,,,0.01,Wunderground v.1.15,2013-01-02 02:45:00,
2013-01-01 21:55:00,67.7,61.3,30.06,SSE,160,0.0,0.0,80,0.00,,,0.01,Wunderground v.1.15,2013-01-02 02:55:00,
2013-01-01 22:05:00,67.6,61.2,30.06,SSE,160,0.0,0.0,80,0.00,,,0.01,Wunderground v.1.15,2013-01-02 03:05:00,
2013-01-01 22:15:00,67.3,61.3,30.06,SSE,160,0.0,0.0,81,0.00,,,0.01,Wunderground v.1.15,2013-01-02 03:15:00,
2013-01-01 22:25:00,67.0,61.0,30.06,SSE,160,0.0,0.0,81,0.00,,,0.01,Wunderground v.1.15,2013-01-02 03:25:00,
2013-01-01 22:30:00,66.9,60.9,30.06,SSE,160,0.0,0.0,81,0.00,,,0.01,Wunderground v.1.15,2013-01-02 03:30:00,
2013-01-01 22:35:00,66.8,60.8,30.06,SSE,160,0.0,0.0,81,0.00,,,0.01,Wunderground v.1.15,2013-01-02 03:35:00,
2013-01-01 22:40:00,66.7,61.0,30.06,SSE,160,0.0,0.0,82,0.00,,,0.01,Wunderground v.1.15,2013-01-02 03:40:00,
2013-01-01 22:50:00,66.4,60.7,30.06,SSE,160,0.0,0.0,82,0.00,,,0.01,Wunderground v.1.15,2013-01-02 03:50:00,
2013-01-01 23:00:00,66.1,60.4,30.06,SSE,160,0.0,0.0,82,0.00,,,0.01,Wunderground v.1.15,2013-01-02 04:00:00,
2013-01-01 23:05:00,66.0,60.7,30.05,SSE,160,0.0,0.0,83,0.00,,,0.01,Wunderground v.1.15,2013-01-02 04:05:00,
2013-01-01 23:10:00,65.9,60.6,30.05,SSE,160,0.0,0.0,83,0.00,,,0.01,Wunderground v.1.15,2013-01-02 04:10:00,
2013-01-01 23:15:00,65.8,60.5,30.05,SSE,160,0.0,0.0,83,0.00,,,0.01,Wunderground v.1.15,2013-01-02 04:15:00,
2013-01-01 23:25:00,65.6,60.3,30.05,SSE,160,0.0,0.0,83,0.00,,,0.01,Wunderground v.1.15,2013-01-02 04:25:00,
2013-01-01 23:30:00,65.4,60.1,30.04,SSE,160,0.0,0.0,83,0.00,,,0.01,Wunderground v.1.15,2013-01-02 04:30:00,
2013-01-01 23:35:00,65.3,60.0,30.04,SSE,160,0.0,0.0,83,0.00,,,0.01,Wunderground v.1.15,2013-01-02 04:35:00,
2013-01-01 23:45:00,65.1,60.1,30.04,SSE,160,0.0,0.0,84,0.00,,,0.01,Wunderground v.1.15,2013-01-02 04:45:00,
2013-01-01 23:50:00,65.1,60.5,30.04,SSE,160,0.0,1.0,85,0.00,,,0.01,Wunderground v.1.15,2013-01-02 04:50:00,
2013-01-01 23:55:00,65.1,60.5,30.04,SSE,160,0.0,1.0,85,0.00,,,0.01,Wunderground v.1.15,2013-01-02 04:55:00,